Česky Dansk Deutsch English Español Suomi Français Magyar Italiano Nederlands norsk Polski Português svenska Türkçe

 

Het Weer

Kamishli (Syria)

18:00, 20 augustus 2016 (GMT)

NWNNE
WE
SWSSE
Home            
Kamishli Batman Diyarbakir Mosul Mus Tur-Afb Deir Ezzor Urfa Van Elazig Malatya / Erhac Erzurum Erzincan Gaziantep Orumieh Khoy Aleppo International Airport Palmyra Kars Maragheh / Sahand Yerevan Iskenderun Trabzon Saghez

Om een weerknop op uw website of weblog te plaatsen, copieer onderstaande code en plak die in uw pagina. In het eerste vakje staat HTML-code, in het tweede vakje UBB-code.


Add to Google

Details

Wind speed:3 bf, 7 kn, 3.6 m/s, 8.1 miles/h, 13.0 km/h
Wind direction:NNW, 330°
Visibility: 7000 m, 7.0 km, 22966 ft, 4.3 miles
Temperature:33°C, 91°F
Gefühlte Temperatur:31°C, 87°F
Dew-point:-1°C, 30°F
Atmospheric pressure:1006 hPa, 754.6 mmHg, 29.71 inHg, 0.993 atm
Relative humidity:11.3 %
METAR:OSKL 201800Z 33007KT 7000 33/M01 Q1006

Snelkoppelingen

Actuele weersinformatie van de hele wereld. Voeg locaties toe met het plus (+) symbool. Deze snelkoppelingen kunnen worden toegevoegd aan Google.

Lid van de Technetium groep

website free tracking
StatCounter NetStat W3C Validator

19-08-2022 11:08:44
astro.technetium.be money.technetium.be phote.technetium.be tafeltennistafel.technetium.be www.ligfiets.net